createdAt,value
2022-12-23T00:00:06.000Z,96006
2022-12-23T00:05:07.000Z,96012
2022-12-23T00:10:04.000Z,95984
2022-12-23T00:15:05.000Z,95994
2022-12-23T00:20:06.000Z,96008
2022-12-23T00:25:04.000Z,95994
2022-12-23T00:30:04.000Z,95992
2022-12-23T00:35:07.000Z,96004
2022-12-23T00:40:04.000Z,95986
2022-12-23T00:45:07.000Z,95978
2022-12-23T00:50:05.000Z,95985
2022-12-23T00:55:06.000Z,95967
2022-12-23T01:00:04.000Z,95983
2022-12-23T01:05:06.000Z,95987
2022-12-23T01:10:06.000Z,96002
2022-12-23T01:15:05.000Z,95996
2022-12-23T01:20:07.000Z,95985
2022-12-23T01:25:04.000Z,96001
2022-12-23T01:30:04.000Z,96001
2022-12-23T01:35:03.000Z,95999
2022-12-23T01:40:04.000Z,96010
2022-12-23T01:45:05.000Z,96006
2022-12-23T01:50:06.000Z,96025
2022-12-23T01:55:06.000Z,96041
2022-12-23T02:00:07.000Z,96038
2022-12-23T02:05:07.000Z,96036
2022-12-23T02:10:05.000Z,96037
2022-12-23T02:15:07.000Z,96032
2022-12-23T02:20:06.000Z,96038
2022-12-23T02:25:06.000Z,96046
2022-12-23T02:30:05.000Z,96037
2022-12-23T02:35:04.000Z,96019
2022-12-23T02:40:03.000Z,96016
2022-12-23T02:45:05.000Z,96037
2022-12-23T02:50:07.000Z,96030
2022-12-23T02:55:06.000Z,96032
2022-12-23T03:00:07.000Z,96038
2022-12-23T03:05:06.000Z,96039
2022-12-23T03:10:06.000Z,96036
2022-12-23T03:15:04.000Z,96028
2022-12-23T03:20:06.000Z,96026
2022-12-23T03:25:03.000Z,96036
2022-12-23T03:30:05.000Z,96026
2022-12-23T03:35:06.000Z,96019
2022-12-23T03:40:03.000Z,96015
2022-12-23T03:45:07.000Z,96016
2022-12-23T03:50:06.000Z,96016
2022-12-23T03:55:06.000Z,96009
2022-12-23T04:00:03.000Z,96003
2022-12-23T04:05:06.000Z,96006
2022-12-23T04:10:06.000Z,96013
2022-12-23T04:15:04.000Z,96014
2022-12-23T04:20:04.000Z,96012
2022-12-23T04:25:06.000Z,96009
2022-12-23T04:30:07.000Z,96017
2022-12-23T04:35:05.000Z,96012
2022-12-23T04:40:04.000Z,96010
2022-12-23T04:45:05.000Z,96011
2022-12-23T04:50:04.000Z,96017
2022-12-23T04:55:04.000Z,96017
2022-12-23T05:00:05.000Z,96021
2022-12-23T05:05:06.000Z,96021
2022-12-23T05:10:04.000Z,96017
2022-12-23T05:15:06.000Z,96005
2022-12-23T05:20:06.000Z,96011
2022-12-23T05:25:03.000Z,95988
2022-12-23T05:30:06.000Z,96005
2022-12-23T05:35:06.000Z,96007
2022-12-23T05:40:06.000Z,95997
2022-12-23T05:45:05.000Z,95998
2022-12-23T05:50:03.000Z,96005
2022-12-23T05:55:07.000Z,96010
2022-12-23T06:00:07.000Z,96010
2022-12-23T06:05:04.000Z,96020
2022-12-23T06:10:06.000Z,96021
2022-12-23T06:15:03.000Z,96016
2022-12-23T06:20:06.000Z,96023
2022-12-23T06:25:06.000Z,96029
2022-12-23T06:30:05.000Z,96028
2022-12-23T06:35:07.000Z,96036
2022-12-23T06:40:05.000Z,96044
2022-12-23T06:45:05.000Z,96048
2022-12-23T06:50:04.000Z,96043
2022-12-23T06:55:05.000Z,96035
2022-12-23T07:00:09.000Z,96042
2022-12-23T07:05:06.000Z,96040
2022-12-23T07:10:05.000Z,96044
2022-12-23T07:15:03.000Z,96051
2022-12-23T07:20:06.000Z,96046
2022-12-23T07:25:06.000Z,96060
2022-12-23T07:30:02.000Z,96067
2022-12-23T07:35:05.000Z,96070
2022-12-23T07:40:07.000Z,96081
2022-12-23T07:45:04.000Z,96065
2022-12-23T07:50:04.000Z,96072
2022-12-23T07:55:03.000Z,96085
2022-12-23T08:00:04.000Z,96078
2022-12-23T08:05:04.000Z,96071
2022-12-23T08:10:04.000Z,96088
2022-12-23T08:15:07.000Z,96075
2022-12-23T08:20:06.000Z,96077
2022-12-23T08:25:06.000Z,96077
2022-12-23T08:30:07.000Z,96071
2022-12-23T08:35:06.000Z,96078
2022-12-23T08:40:06.000Z,96081
2022-12-23T08:45:05.000Z,96082
2022-12-23T08:50:05.000Z,96086
2022-12-23T08:55:07.000Z,96088
2022-12-23T09:00:04.000Z,96076
2022-12-23T09:05:05.000Z,96076
2022-12-23T09:10:05.000Z,96075
2022-12-23T09:15:04.000Z,96078
2022-12-23T09:20:05.000Z,96068
2022-12-23T09:25:04.000Z,96075
2022-12-23T09:30:06.000Z,96076
2022-12-23T09:35:07.000Z,96070
2022-12-23T09:40:05.000Z,96069
2022-12-23T09:45:07.000Z,96060
2022-12-23T09:50:05.000Z,96064
2022-12-23T09:55:02.000Z,96067
2022-12-23T10:00:04.000Z,96055
2022-12-23T10:05:05.000Z,96056
2022-12-23T10:10:03.000Z,96040
2022-12-23T10:15:06.000Z,96052
2022-12-23T10:20:06.000Z,96039
2022-12-23T10:25:08.000Z,96048
2022-12-23T10:30:07.000Z,96049
2022-12-23T10:35:02.000Z,96046
2022-12-23T10:40:06.000Z,96036
2022-12-23T10:45:04.000Z,96019
2022-12-23T10:50:07.000Z,96024
2022-12-23T10:55:03.000Z,96025
2022-12-23T11:00:05.000Z,96024
2022-12-23T11:05:03.000Z,96015
2022-12-23T11:10:04.000Z,96012
2022-12-23T11:15:06.000Z,96027
2022-12-23T11:20:05.000Z,96020
2022-12-23T11:25:06.000Z,96017
2022-12-23T11:30:08.000Z,96022
2022-12-23T11:35:04.000Z,96012
2022-12-23T11:40:03.000Z,96002
2022-12-23T11:45:06.000Z,95993
2022-12-23T11:50:05.000Z,95994
2022-12-23T11:55:06.000Z,95988
2022-12-23T12:00:04.000Z,95984
2022-12-23T12:05:04.000Z,95986
2022-12-23T12:10:07.000Z,95980
2022-12-23T12:15:06.000Z,95982
2022-12-23T12:20:06.000Z,95981
2022-12-23T12:25:05.000Z,95976
2022-12-23T12:30:07.000Z,95972
2022-12-23T12:35:04.000Z,95965
2022-12-23T12:40:06.000Z,95963
2022-12-23T12:45:05.000Z,95967
2022-12-23T12:50:04.000Z,95969
2022-12-23T12:55:04.000Z,95959
2022-12-23T13:00:06.000Z,95946
2022-12-23T13:05:07.000Z,95951
2022-12-23T13:10:05.000Z,95947
2022-12-23T13:15:06.000Z,95957
2022-12-23T13:20:03.000Z,95954
2022-12-23T13:25:06.000Z,95966
2022-12-23T13:30:05.000Z,95964
2022-12-23T13:35:04.000Z,95966
2022-12-23T13:40:06.000Z,95972
2022-12-23T13:45:03.000Z,95977
2022-12-23T13:50:05.000Z,95976
2022-12-23T13:55:03.000Z,95967
2022-12-23T14:00:06.000Z,95962
2022-12-23T14:05:06.000Z,95961
2022-12-23T14:10:05.000Z,95968
2022-12-23T14:15:05.000Z,95965
2022-12-23T14:20:07.000Z,95986
2022-12-23T14:25:06.000Z,95975
2022-12-23T14:30:06.000Z,95965
2022-12-23T14:35:08.000Z,95982
2022-12-23T14:40:05.000Z,95984
2022-12-23T14:45:03.000Z,95969
2022-12-23T14:50:06.000Z,95973
2022-12-23T14:55:06.000Z,95970
2022-12-23T15:00:07.000Z,95979
2022-12-23T15:05:05.000Z,95977
2022-12-23T15:10:03.000Z,95975
2022-12-23T15:15:06.000Z,95969
2022-12-23T15:20:04.000Z,95993
2022-12-23T15:25:05.000Z,96004
2022-12-23T15:30:05.000Z,95995
2022-12-23T15:35:03.000Z,96003
2022-12-23T15:40:07.000Z,96010
2022-12-23T15:45:07.000Z,96019
2022-12-23T15:50:05.000Z,96017
2022-12-23T15:55:06.000Z,96026
2022-12-23T16:00:06.000Z,96014
2022-12-23T16:05:07.000Z,96010
2022-12-23T16:10:04.000Z,96010
2022-12-23T16:15:06.000Z,96026
2022-12-23T16:20:08.000Z,96014
2022-12-23T16:25:05.000Z,96024
2022-12-23T16:30:04.000Z,95991
2022-12-23T16:35:04.000Z,96018
2022-12-23T16:40:05.000Z,96008
2022-12-23T16:45:04.000Z,96022
2022-12-23T16:50:05.000Z,96020
2022-12-23T16:55:06.000Z,96031
2022-12-23T17:00:08.000Z,96040
2022-12-23T17:05:04.000Z,96059
2022-12-23T17:10:02.000Z,96012
2022-12-23T17:15:04.000Z,96027
2022-12-23T17:20:02.000Z,96024
2022-12-23T17:25:04.000Z,96039
2022-12-23T17:30:05.000Z,96033
2022-12-23T17:35:06.000Z,96044
2022-12-23T17:40:05.000Z,96043
2022-12-23T17:45:06.000Z,96050
2022-12-23T17:50:05.000Z,96065
2022-12-23T17:55:07.000Z,96044
2022-12-23T18:00:07.000Z,96060
2022-12-23T18:05:06.000Z,96057
2022-12-23T18:10:03.000Z,96061
2022-12-23T18:15:05.000Z,96043
2022-12-23T18:20:05.000Z,96067
2022-12-23T18:25:07.000Z,96088
2022-12-23T18:30:05.000Z,96096
2022-12-23T18:35:07.000Z,96078
2022-12-23T18:40:05.000Z,96071
2022-12-23T18:45:04.000Z,96069
2022-12-23T18:50:05.000Z,96060
2022-12-23T18:55:05.000Z,96033
2022-12-23T19:00:04.000Z,96088
2022-12-23T19:05:03.000Z,96083
2022-12-23T19:10:03.000Z,96084
2022-12-23T19:15:03.000Z,96084
2022-12-23T19:20:03.000Z,96108
2022-12-23T19:25:06.000Z,96124
2022-12-23T19:30:06.000Z,96128
2022-12-23T19:35:06.000Z,96125
2022-12-23T19:40:05.000Z,96143
2022-12-23T19:45:05.000Z,96145
2022-12-23T19:50:03.000Z,96152
2022-12-23T19:55:04.000Z,96171
2022-12-23T20:00:07.000Z,96173
2022-12-23T20:05:06.000Z,96181
2022-12-23T20:10:03.000Z,96189
2022-12-23T20:15:04.000Z,96173
2022-12-23T20:20:05.000Z,96186
2022-12-23T20:25:03.000Z,96173
2022-12-23T20:30:03.000Z,96168
2022-12-23T20:35:05.000Z,96187
2022-12-23T20:40:07.000Z,96209
2022-12-23T20:45:05.000Z,96208
2022-12-23T20:50:07.000Z,96200
2022-12-23T20:55:06.000Z,96192
2022-12-23T21:05:11.000Z,96176
2022-12-23T21:10:08.000Z,96185
2022-12-23T21:15:11.000Z,96189
2022-12-23T21:20:08.000Z,96191
2022-12-23T21:25:07.000Z,96202
2022-12-23T21:30:09.000Z,96200
2022-12-23T21:35:05.000Z,96207
2022-12-23T21:40:05.000Z,96200
2022-12-23T21:45:07.000Z,96199
2022-12-23T21:50:07.000Z,96221
2022-12-23T21:55:06.000Z,96219
2022-12-23T22:00:08.000Z,96224
2022-12-23T22:05:04.000Z,96233
2022-12-23T22:10:05.000Z,96235
2022-12-23T22:15:06.000Z,96227
2022-12-23T22:20:06.000Z,96228
2022-12-23T22:25:07.000Z,96233
2022-12-23T22:30:08.000Z,96230
2022-12-23T22:35:06.000Z,96229
2022-12-23T22:40:06.000Z,96221
2022-12-23T22:45:07.000Z,96237
2022-12-23T22:50:03.000Z,96221
2022-12-23T22:55:06.000Z,96227
2022-12-23T23:00:06.000Z,96220
2022-12-23T23:05:03.000Z,96205
2022-12-23T23:10:07.000Z,96215
2022-12-23T23:15:03.000Z,96225
2022-12-23T23:20:08.000Z,96227
2022-12-23T23:25:07.000Z,96242
2022-12-23T23:30:07.000Z,96240
2022-12-23T23:35:06.000Z,96253
2022-12-23T23:40:06.000Z,96261
2022-12-23T23:45:03.000Z,96245
2022-12-23T23:50:03.000Z,96272
2022-12-23T23:55:08.000Z,96260
